Barcelos, Brazil
Current Conditions -  °F | °C
As of 6:00 PM on Saturday 25 Oct 2014 (Local Time) from SBEG Reporting Station
Light Rain Light Rain  
Wind Chill: 75°   Ceiling: 9000
Heat Index: 75°   Visibility: 6mi
Dew Point: 72°   Wind: 7mph
Humidity: 89%   Direction: 340°NNW
Pressure: 29.77"   Gusts: NA
Location:  0.97°S, 62.94°W
Report Text: SBEG 252200Z 34006KT 9000 -RA FEW003 SCT030 BKN090 24/22 Q1008
Loading
Personal Weather Stations






























Interactive Weather Map
Tropical Storm Tracking
New forecast layout! Learn more

10-Day Weather Forecast

Advertisements
Track Severe Weather on mobile